Time;durP1;ratioP1;P1;durP2;ratioP2;P2;SDS_P1;SDS_P2;PMS_P1;PMS_P2;Temp;Humidity;BMP_temperature;BMP_pressure;BME280_temperature;BME280_humidity;BME280_pressure;Samples;Min_cycle;Max_cycle;Signal;HPM_P1;HPM_P2
2023/02/25 00:07:44;;;;;;;2.45;0.65;;;4.80;13.80;;;;;;25779811;23;20018;-42
2023/02/25 00:17:48;;;;;;;2.95;1.48;;;4.70;14.00;;;;;;25777476;23;20469;-43
2023/02/25 00:27:49;;;;;;;3.20;0.82;;;4.80;15.80;;;;;;25785044;23;20020;-42
2023/02/25 00:37:50;;;;;;;8.77;0.90;;;4.80;16.40;;;;;;25784110;23;20024;-42
2023/02/25 00:47:51;;;;;;;3.38;0.80;;;4.60;17.40;;;;;;25780730;23;20022;-42
2023/02/25 00:57:52;;;;;;;2.83;1.33;;;4.50;20.20;;;;;;25780967;23;20408;-43
2023/02/25 01:07:54;;;;;;;1.98;0.40;;;4.30;25.00;;;;;;25778877;23;20038;-43
2023/02/25 01:17:55;;;;;;;3.15;1.30;;;4.10;30.10;;;;;;25769269;23;20038;-43
2023/02/25 01:27:56;;;;;;;3.92;2.08;;;4.00;35.20;;;;;;25774123;23;20019;-43
2023/02/25 01:37:57;;;;;;;5.57;2.25;;;3.90;40.40;;;;;;25771351;23;20057;-43
2023/02/25 01:48:10;;;;;;;7.47;1.40;;;3.90;43.80;;;;;;25773332;23;20326;-43
2023/02/25 01:58:12;;;;;;;3.70;1.88;;;3.90;47.40;;;;;;25777080;23;20357;-42
2023/02/25 02:08:13;;;;;;;6.40;1.60;;;4.00;49.70;;;;;;25778089;23;20306;-42
2023/02/25 02:18:16;;;;;;;2.67;1.05;;;4.20;55.50;;;;;;25773026;23;20202;-43
2023/02/25 02:28:45;;;;;;;4.25;1.48;;;4.50;52.70;;;;;;25775862;23;20008;-43
2023/02/25 02:39:26;;;;;;;5.60;1.55;;;4.50;50.00;;;;;;25767773;23;20081;-42
2023/02/25 02:49:42;;;;;;;9.70;2.78;;;4.50;49.10;;;;;;25903878;22;20031;-43
2023/02/25 02:59:52;;;;;;;4.07;2.00;;;4.60;46.90;;;;;;25893511;22;20030;-43
2023/02/25 03:09:58;;;;;;;3.00;1.38;;;4.70;44.10;;;;;;25897003;22;20420;-43
2023/02/25 03:20:06;;;;;;;8.85;1.80;;;4.70;43.70;;;;;;25888334;22;20340;-43
2023/02/25 03:30:24;;;;;;;8.60;2.08;;;4.70;40.10;;;;;;25907156;22;20007;-43
2023/02/25 03:40:26;;;;;;;5.03;2.20;;;4.80;35.40;;;;;;25911086;22;20016;-43
2023/02/25 03:50:30;;;;;;;7.40;2.00;;;4.80;32.60;;;;;;25912384;22;20007;-43
2023/02/25 04:00:32;;;;;;;4.10;1.30;;;4.80;34.80;;;;;;25899099;22;20011;-43
2023/02/25 04:10:33;;;;;;;2.47;0.95;;;4.80;24.70;;;;;;25888089;22;20020;-42
2023/02/25 04:20:34;;;;;;;5.68;1.38;;;4.70;24.30;;;;;;25889498;22;20023;-42
2023/02/25 04:30:36;;;;;;;2.95;1.33;;;4.70;23.10;;;;;;25899101;22;20451;-42
2023/02/25 04:40:37;;;;;;;9.50;1.33;;;4.70;22.10;;;;;;25887413;22;20445;-42
2023/02/25 04:50:38;;;;;;;2.92;0.80;;;4.60;17.50;;;;;;25889335;22;20027;-43
2023/02/25 05:00:46;;;;;;;3.22;1.40;;;4.60;16.40;;;;;;25890794;22;20015;-43
2023/02/25 05:10:47;;;;;;;11.45;2.13;;;4.60;12.20;;;;;;25887572;22;20457;-43
2023/02/25 05:20:48;;;;;;;5.20;1.90;;;4.40;11.20;;;;;;25890723;22;20361;-42
2023/02/25 05:30:51;;;;;;;8.68;1.40;;;4.30;12.60;;;;;;25901401;22;20020;-43
2023/02/25 05:40:52;;;;;;;3.97;1.55;;;4.40;16.90;;;;;;25884845;22;20053;-43
2023/02/25 05:51:00;;;;;;;1.77;0.75;;;4.40;18.80;;;;;;25902356;22;20022;-43
2023/02/25 06:01:10;;;;;;;6.65;2.40;;;4.30;18.80;;;;;;25890661;22;20444;-42
2023/02/25 06:11:17;;;;;;;3.28;1.05;;;4.10;20.70;;;;;;25888330;22;20386;-42
2023/02/25 06:21:19;;;;;;;10.05;1.15;;;4.00;23.30;;;;;;25897711;22;20839;-42
2023/02/25 06:31:22;;;;;;;1.98;0.80;;;3.90;26.80;;;;;;25905332;22;20332;-42
2023/02/25 06:41:23;;;;;;;3.78;1.10;;;3.80;28.80;;;;;;25895406;22;20018;-42
2023/02/25 06:51:24;;;;;;;5.13;1.85;;;3.80;26.10;;;;;;25896215;22;20794;-42
2023/02/25 07:01:25;;;;;;;8.77;2.67;;;3.70;29.10;;;;;;25897238;22;20398;-43
2023/02/25 07:11:30;;;;;;;2.90;1.25;;;4.00;26.30;;;;;;25893455;22;20012;-43
2023/02/25 07:21:32;;;;;;;2.05;1.23;;;4.20;23.90;;;;;;25892528;22;20027;-43
2023/02/25 07:31:33;;;;;;;4.03;1.08;;;4.50;21.00;;;;;;25905109;22;20347;-42
2023/02/25 07:41:35;;;;;;;5.93;1.55;;;4.40;18.70;;;;;;25909803;22;20016;-43
2023/02/25 07:51:36;;;;;;;11.18;1.98;;;4.50;16.20;;;;;;25904034;22;20711;-42
2023/02/25 08:01:38;;;;;;;15.95;3.80;;;4.60;15.30;;;;;;25897351;22;20023;-42
2023/02/25 08:11:39;;;;;;;7.63;2.67;;;4.90;15.40;;;;;;25895358;22;20694;-42
2023/02/25 08:32:14;;;;;;;3.90;1.35;;;5.00;10.40;;;;;;25938301;22;20023;-79
2023/02/25 08:42:22;;;;;;;2.08;1.00;;;5.30;7.60;;;;;;25876858;22;20557;-42
2023/02/25 08:52:23;;;;;;;6.43;1.55;;;5.30;7.10;;;;;;25894958;22;20267;-42
2023/02/25 09:02:24;;;;;;;3.30;0.65;;;5.30;10.40;;;;;;25888584;22;20479;-41
2023/02/25 09:12:25;;;;;;;8.73;0.80;;;5.40;8.30;;;;;;25896773;22;20353;-42
2023/02/25 09:22:27;;;;;;;4.47;1.25;;;5.50;12.50;;;;;;25881681;22;20016;-42
2023/02/25 09:32:28;;;;;;;1.73;1.00;;;5.70;12.60;;;;;;25881610;22;20682;-42
2023/02/25 09:42:46;;;;;;;2.97;1.00;;;5.70;11.30;;;;;;25939608;22;20029;-41
2023/02/25 09:53:02;;;;;;;1.23;0.40;;;6.00;7.70;;;;;;25810163;22;21892;-41
2023/02/25 10:03:28;;;;;;;0.85;0.20;;;5.80;2.80;;;;;;26018732;22;20459;-41
2023/02/25 10:13:46;;;;;;;0.80;0.28;;;5.30;9.80;;;;;;26029122;22;20417;-42
2023/02/25 10:24:06;;;;;;;0.40;0.13;;;5.30;14.30;;;;;;26020566;22;20019;-42
2023/02/25 10:34:22;;;;;;;0.52;0.20;;;5.50;14.00;;;;;;26024941;22;21564;-42
2023/02/25 10:44:23;;;;;;;1.25;0.30;;;5.90;15.20;;;;;;26020899;22;20033;-41
2023/02/25 10:54:25;;;;;;;1.00;0.38;;;6.70;7.60;;;;;;26025419;22;20007;-42
2023/02/25 11:04:36;;;;;;;2.13;0.30;;;7.30;1.00;;;;;;26029008;22;20015;-42
2023/02/25 11:14:38;;;;;;;0.45;0.22;;;7.90;1.00;;;;;;26035248;22;20347;-42
2023/02/25 11:24:41;;;;;;;0.93;0.50;;;6.60;1.00;;;;;;26028568;22;20017;-42
2023/02/25 11:34:46;;;;;;;2.08;0.47;;;6.50;5.20;;;;;;26047996;22;20007;-42
2023/02/25 11:44:46;;;;;;;0.85;0.57;;;7.10;1.00;;;;;;26042770;22;20038;-41
2023/02/25 11:55:21;;;;;;;0.85;0.30;;;8.30;1.00;;;;;;26043775;22;20094;-42
2023/02/25 12:05:46;;;;;;;0.30;0.20;;;9.10;1.00;;;;;;26047644;22;20011;-42
2023/02/25 12:15:53;;;;;;;1.25;0.25;;;9.10;1.00;;;;;;26044338;22;20100;-42
2023/02/25 12:26:21;;;;;;;7.57;0.40;;;9.00;1.00;;;;;;26039910;22;20022;-41
2023/02/25 12:36:55;;;;;;;2.00;0.73;;;9.20;1.00;;;;;;26027063;22;20520;-41
2023/02/25 12:47:18;;;;;;;1.70;0.45;;;9.50;1.00;;;;;;26027431;22;20033;-42
2023/02/25 12:57:32;;;;;;;4.63;1.27;;;10.40;1.00;;;;;;26029857;22;20011;-42
2023/02/25 13:07:47;;;;;;;1.63;0.20;;;10.10;1.00;;;;;;26026788;22;20869;-42
2023/02/25 13:18:02;;;;;;;1.42;0.40;;;10.00;1.00;;;;;;26011778;22;20511;-42
2023/02/25 13:28:20;;;;;;;1.35;0.40;;;10.20;1.00;;;;;;26024403;22;20087;-41
2023/02/25 13:38:30;;;;;;;;;;;10.50;1.00;;;;;;26030102;22;20368;-42
2023/02/25 13:48:38;;;;;;;5.32;1.17;;;10.90;1.00;;;;;;26017180;22;19921;-42
2023/02/25 13:59:17;;;;;;;1.60;0.38;;;10.00;1.00;;;;;;26017628;22;20580;-41
2023/02/25 14:09:30;;;;;;;1.67;0.40;;;10.30;1.00;;;;;;26013410;22;20015;-41
2023/02/25 14:19:50;;;;;;;2.22;0.60;;;9.80;1.00;;;;;;26016944;22;20015;-42
2023/02/25 14:30:23;;;;;;;1.60;0.40;;;9.60;1.00;;;;;;26028142;22;20408;-43
2023/02/25 14:40:31;;;;;;;1.33;0.40;;;10.70;1.00;;;;;;26030514;22;20022;-42
2023/02/25 14:51:20;;;;;;;9.15;1.88;;;9.90;1.00;;;;;;26031204;22;20356;-42
2023/02/25 15:01:43;;;;;;;1.50;1.08;;;10.20;1.00;;;;;;25978544;22;20039;-41
2023/02/25 15:12:21;;;;;;;1.42;0.32;;;9.60;1.00;;;;;;26030778;22;20706;-41
2023/02/25 15:22:28;;;;;;;1.40;0.47;;;8.40;1.00;;;;;;26044924;22;20011;-41
2023/02/25 15:33:05;;;;;;;4.60;0.97;;;7.80;1.00;;;;;;26030897;22;20325;-41
2023/02/25 15:43:09;;;;;;;0.67;0.27;;;7.60;1.00;;;;;;26028133;22;20106;-41
2023/02/25 15:53:22;;;;;;;1.85;0.40;;;7.30;1.00;;;;;;26046258;22;20019;-41
2023/02/25 16:03:35;;;;;;;1.75;0.38;;;6.80;1.00;;;;;;26033201;22;20090;-42
2023/02/25 16:13:39;;;;;;;1.40;0.60;;;6.70;1.00;;;;;;26049097;22;20528;-41
2023/02/25 16:23:42;;;;;;;1.55;0.95;;;6.60;1.00;;;;;;26033586;22;20065;-42
2023/02/25 16:33:54;;;;;;;2.10;0.88;;;6.60;1.00;;;;;;26031790;22;20017;-42
2023/02/25 16:43:58;;;;;;;1.42;0.52;;;6.40;1.00;;;;;;26034857;22;20081;-42
2023/02/25 16:54:16;;;;;;;0.82;0.32;;;6.20;1.00;;;;;;26022839;22;20431;-42
2023/02/25 17:04:18;;;;;;;;;;;6.10;1.00;;;;;;26030859;22;20018;-42
2023/02/25 17:14:20;;;;;;;2.90;0.90;;;6.00;1.00;;;;;;26038173;22;20308;-43
2023/02/25 17:24:26;;;;;;;1.92;0.80;;;5.80;1.00;;;;;;26048885;22;20074;-41
2023/02/25 17:34:33;;;;;;;2.78;1.17;;;5.60;1.00;;;;;;26027862;22;20082;-41
2023/02/25 17:44:41;;;;;;;5.72;2.60;;;5.50;1.00;;;;;;26025763;22;20055;-42
2023/02/25 17:54:44;;;;;;;;;;;5.40;1.00;;;;;;26014391;22;20352;-42
2023/02/25 18:04:45;;;;;;;3.38;1.67;;;5.30;1.00;;;;;;26021672;22;19921;-42
2023/02/25 18:14:58;;;;;;;7.80;2.78;;;5.20;1.00;;;;;;26040879;22;20021;-42
2023/02/25 18:25:03;;;;;;;2.85;1.58;;;5.00;1.00;;;;;;26031258;22;22065;-42
2023/02/25 18:35:05;;;;;;;2.05;0.70;;;4.90;1.00;;;;;;26036570;22;20007;-42
2023/02/25 18:45:20;;;;;;;1.45;0.60;;;4.70;1.00;;;;;;26041039;22;20022;-42
2023/02/25 18:55:24;;;;;;;2.22;1.30;;;4.60;1.00;;;;;;26036927;22;20506;-42
2023/02/25 19:05:26;;;;;;;5.55;2.70;;;4.60;1.00;;;;;;26035647;22;20038;-42
2023/02/25 19:15:27;;;;;;;38.40;14.00;;;4.40;1.00;;;;;;26034533;22;20013;-42
2023/02/25 19:25:34;;;;;;;29.73;10.15;;;4.40;1.00;;;;;;26022878;22;20090;-42
2023/02/25 19:35:37;;;;;;;20.42;7.47;;;4.30;1.00;;;;;;26029178;22;20357;-41
2023/02/25 19:45:39;;;;;;;1.58;0.60;;;4.30;1.00;;;;;;26027497;22;20445;-42
2023/02/25 19:55:42;;;;;;;6.88;1.60;;;4.20;1.00;;;;;;26017923;22;20037;-42
2023/02/25 20:05:43;;;;;;;2.85;0.77;;;4.30;1.00;;;;;;26028067;22;20011;-42
2023/02/25 20:15:44;;;;;;;1.60;0.40;;;4.40;1.00;;;;;;26025988;22;20013;-41
2023/02/25 20:25:45;;;;;;;6.35;2.63;;;4.50;1.00;;;;;;26019433;22;20025;-42
2023/02/25 20:35:46;;;;;;;2.90;0.95;;;4.40;1.00;;;;;;26016165;22;20484;-42
2023/02/25 20:45:47;;;;;;;4.55;3.20;;;4.20;1.00;;;;;;25990036;22;20019;-42
2023/02/25 20:55:49;;;;;;;6.63;2.13;;;4.00;1.00;;;;;;26029884;22;20411;-42
2023/02/25 21:05:50;;;;;;;3.35;1.30;;;3.80;1.00;;;;;;25986933;22;20334;-41
2023/02/25 21:16:01;;;;;;;3.70;1.30;;;3.60;1.00;;;;;;26027689;22;20026;-42
2023/02/25 21:26:04;;;;;;;3.00;1.33;;;3.30;1.00;;;;;;26022353;22;20011;-42
2023/02/25 21:36:06;;;;;;;7.70;2.03;;;3.20;1.00;;;;;;26026697;22;20015;-42
2023/02/25 21:46:11;;;;;;;6.60;3.30;;;3.00;1.00;;;;;;26025031;22;20019;-41
2023/02/25 21:56:14;;;;;;;5.18;3.38;;;2.90;1.00;;;;;;26032743;22;20008;-42
2023/02/25 22:06:16;;;;;;;6.20;3.00;;;2.80;1.00;;;;;;26023046;22;20015;-42
2023/02/25 22:16:19;;;;;;;15.63;2.00;;;2.80;1.00;;;;;;26022516;22;21007;-42
2023/02/25 22:26:24;;;;;;;5.38;2.58;;;2.80;1.00;;;;;;26033014;22;20457;-42
2023/02/25 22:36:25;;;;;;;6.03;2.22;;;2.80;1.00;;;;;;26039796;22;20093;-42
2023/02/25 22:46:35;;;;;;;6.35;1.98;;;2.70;1.00;;;;;;26040393;22;20364;-42
2023/02/25 22:56:36;;;;;;;2.53;1.00;;;2.60;1.00;;;;;;26045783;22;20014;-42
2023/02/25 23:06:37;;;;;;;2.83;1.17;;;2.40;1.00;;;;;;26011000;22;20015;-42
2023/02/25 23:16:41;;;;;;;2.33;1.48;;;2.30;1.00;;;;;;26044901;22;20017;-42
2023/02/25 23:26:43;;;;;;;5.82;2.05;;;2.30;1.00;;;;;;26041734;22;20022;-42
2023/02/25 23:36:44;;;;;;;6.97;2.95;;;2.30;1.00;;;;;;26027646;22;20455;-42
2023/02/25 23:46:46;;;;;;;4.25;2.20;;;2.20;1.00;;;;;;26031757;22;20026;-42
2023/02/25 23:56:48;;;;;;;2.83;1.35;;;2.10;1.00;;;;;;26033038;22;20011;-42
